sensor_id;sensor_type;location;lat;lon;timestamp;pressure;altitude;pressure_sealevel;temperature;humidity
24825;BME280;12910;57.690;11.974;2022-07-29T00:00:42;101238.38;;;15.87;100.00
24825;BME280;12910;57.690;11.974;2022-07-29T00:03:13;101244.38;;;15.84;100.00
24825;BME280;12910;57.690;11.974;2022-07-29T00:05:40;101239.19;;;15.81;100.00
24825;BME280;12910;57.690;11.974;2022-07-29T00:08:06;101244.31;;;15.75;100.00
24825;BME280;12910;57.690;11.974;2022-07-29T00:10:32;101240.84;;;15.73;100.00
24825;BME280;12910;57.690;11.974;2022-07-29T00:12:57;101245.16;;;15.72;100.00
24825;BME280;12910;57.690;11.974;2022-07-29T00:15:22;101236.50;;;15.66;100.00
24825;BME280;12910;57.690;11.974;2022-07-29T00:17:48;101233.03;;;15.59;100.00
24825;BME280;12910;57.690;11.974;2022-07-29T00:20:13;101249.44;;;15.69;100.00
24825;BME280;12910;57.690;11.974;2022-07-29T00:22:39;101239.97;;;15.68;100.00
24825;BME280;12910;57.690;11.974;2022-07-29T00:25:05;101245.97;;;15.64;100.00
24825;BME280;12910;57.690;11.974;2022-07-29T00:27:31;101242.53;;;15.62;100.00
24825;BME280;12910;57.690;11.974;2022-07-29T00:29:56;101251.13;;;15.57;100.00
24825;BME280;12910;57.690;11.974;2022-07-29T00:32:22;101249.38;;;15.56;100.00
24825;BME280;12910;57.690;11.974;2022-07-29T00:34:47;101243.34;;;15.57;100.00
24825;BME280;12910;57.690;11.974;2022-07-29T00:37:31;101246.78;;;15.50;100.00
24825;BME280;12910;57.690;11.974;2022-07-29T00:39:56;101251.06;;;15.48;100.00
24825;BME280;12910;57.690;11.974;2022-07-29T00:42:22;101239.81;;;15.41;100.00
24825;BME280;12910;57.690;11.974;2022-07-29T00:44:47;101244.09;;;15.39;100.00
24825;BME280;12910;57.690;11.974;2022-07-29T00:47:13;101248.44;;;15.45;100.00
24825;BME280;12910;57.690;11.974;2022-07-29T00:49:39;101249.34;;;15.50;100.00
24825;BME280;12910;57.690;11.974;2022-07-29T00:52:06;101250.22;;;15.48;100.00
24825;BME280;12910;57.690;11.974;2022-07-29T00:54:33;101248.44;;;15.45;100.00
24825;BME280;12910;57.690;11.974;2022-07-29T00:56:59;101249.28;;;15.42;100.00
24825;BME280;12910;57.690;11.974;2022-07-29T00:59:28;101239.81;;;15.40;100.00
24825;BME280;12910;57.690;11.974;2022-07-29T01:01:54;101244.09;;;15.38;100.00
24825;BME280;12910;57.690;11.974;2022-07-29T01:04:20;101257.91;;;15.40;100.00
24825;BME280;12910;57.690;11.974;2022-07-29T01:06:50;101261.34;;;15.40;100.00
24825;BME280;12910;57.690;11.974;2022-07-29T01:09:17;101252.69;;;15.37;100.00
24825;BME280;12910;57.690;11.974;2022-07-29T01:11:44;101250.97;;;15.36;100.00
24825;BME280;12910;57.690;11.974;2022-07-29T01:14:11;101251.78;;;15.29;100.00
24825;BME280;12910;57.690;11.974;2022-07-29T01:16:44;101247.41;;;15.18;100.00
24825;BME280;12910;57.690;11.974;2022-07-29T01:19:45;101258.63;;;15.19;100.00
24825;BME280;12910;57.690;11.974;2022-07-29T01:22:31;101262.06;;;15.18;100.00
24825;BME280;12910;57.690;11.974;2022-07-29T01:27:56;101271.34;;;14.99;100.00
24825;BME280;12910;57.690;11.974;2022-07-29T01:30:27;101267.84;;;14.92;100.00
24825;BME280;12910;57.690;11.974;2022-07-29T01:32:57;101261.03;;;14.95;100.00
24825;BME280;12910;57.690;11.974;2022-07-29T01:35:44;101273.06;;;14.96;100.00
24825;BME280;12910;57.690;11.974;2022-07-29T01:38:20;101267.88;;;14.93;100.00
24825;BME280;12910;57.690;11.974;2022-07-29T01:40:58;101262.72;;;14.93;100.00
24825;BME280;12910;57.690;11.974;2022-07-29T01:43:34;101263.63;;;14.99;100.00
24825;BME280;12910;57.690;11.974;2022-07-29T01:46:04;101264.50;;;14.99;100.00
24825;BME280;12910;57.690;11.974;2022-07-29T01:48:53;101267.03;;;14.98;100.00
24825;BME280;12910;57.690;11.974;2022-07-29T01:51:33;101264.47;;;14.94;100.00
24825;BME280;12910;57.690;11.974;2022-07-29T01:54:02;101274.78;;;14.94;100.00
24825;BME280;12910;57.690;11.974;2022-07-29T01:56:31;101273.00;;;14.90;100.00
24825;BME280;12910;57.690;11.974;2022-07-29T01:58:59;101275.56;;;14.87;100.00
24825;BME280;12910;57.690;11.974;2022-07-29T02:01:26;101278.19;;;14.90;100.00
24825;BME280;12910;57.690;11.974;2022-07-29T02:03:53;101270.41;;;14.86;100.00
24825;BME280;12910;57.690;11.974;2022-07-29T02:06:22;101272.94;;;14.83;100.00
24825;BME280;12910;57.690;11.974;2022-07-29T02:08:49;101276.31;;;14.77;100.00
24825;BME280;12910;57.690;11.974;2022-07-29T02:11:16;101280.59;;;14.70;100.00
24825;BME280;12910;57.690;11.974;2022-07-29T02:13:43;101283.13;;;14.69;100.00
24825;BME280;12910;57.690;11.974;2022-07-29T02:16:10;101283.03;;;14.62;100.00
24825;BME280;12910;57.690;11.974;2022-07-29T02:18:39;101284.75;;;14.60;100.00
24825;BME280;12910;57.690;11.974;2022-07-29T02:21:06;101295.06;;;14.59;100.00
24825;BME280;12910;57.690;11.974;2022-07-29T02:23:33;101294.16;;;14.58;100.00
24825;BME280;12910;57.690;11.974;2022-07-29T02:26:00;101298.47;;;14.59;100.00
24825;BME280;12910;57.690;11.974;2022-07-29T02:28:28;101298.53;;;14.62;100.00
24825;BME280;12910;57.690;11.974;2022-07-29T02:30:59;101294.22;;;14.63;100.00
24825;BME280;12910;57.690;11.974;2022-07-29T02:33:26;101291.69;;;14.64;100.00
24825;BME280;12910;57.690;11.974;2022-07-29T02:35:53;101295.94;;;14.62;100.00
24825;BME280;12910;57.690;11.974;2022-07-29T02:38:22;101295.84;;;14.52;100.00
24825;BME280;12910;57.690;11.974;2022-07-29T02:41:10;101295.75;;;14.44;100.00
24825;BME280;12910;57.690;11.974;2022-07-29T02:43:37;101301.81;;;14.49;100.00
24825;BME280;12910;57.690;11.974;2022-07-29T02:46:08;101301.88;;;14.54;100.00
24825;BME280;12910;57.690;11.974;2022-07-29T02:48:40;101308.75;;;14.53;100.00
24825;BME280;12910;57.690;11.974;2022-07-29T02:54:42;101315.59;;;14.53;100.00
24825;BME280;12910;57.690;11.974;2022-07-29T03:00:36;101320.72;;;14.48;100.00
24825;BME280;12910;57.690;11.974;2022-07-29T03:03:04;101324.91;;;14.40;100.00
24825;BME280;12910;57.690;11.974;2022-07-29T03:05:32;101332.66;;;14.40;100.00
24825;BME280;12910;57.690;11.974;2022-07-29T03:08:02;101340.44;;;14.43;100.00
24825;BME280;12910;57.690;11.974;2022-07-29T03:10:29;101339.56;;;14.41;100.00
24825;BME280;12910;57.690;11.974;2022-07-29T03:12:56;101346.44;;;14.42;100.00
24825;BME280;12910;57.690;11.974;2022-07-29T03:15:23;101341.22;;;14.36;100.00
24825;BME280;12910;57.690;11.974;2022-07-29T03:17:49;101338.53;;;14.28;100.00
24825;BME280;12910;57.690;11.974;2022-07-29T03:20:16;101344.66;;;14.34;100.00
24825;BME280;12910;57.690;11.974;2022-07-29T03:22:42;101332.59;;;14.35;100.00
24825;BME280;12910;57.690;11.974;2022-07-29T03:25:13;101337.88;;;14.43;100.00
24825;BME280;12910;57.690;11.974;2022-07-29T03:27:38;101326.66;;;14.39;100.00
24825;BME280;12910;57.690;11.974;2022-07-29T03:30:05;101341.34;;;14.46;100.00
24825;BME280;12910;57.690;11.974;2022-07-29T03:32:31;101329.28;;;14.44;100.00
24825;BME280;12910;57.690;11.974;2022-07-29T03:34:56;101335.28;;;14.44;100.00
24825;BME280;12910;57.690;11.974;2022-07-29T03:37:21;101339.59;;;14.42;100.00
24825;BME280;12910;57.690;11.974;2022-07-29T03:39:49;101327.31;;;14.24;100.00
24825;BME280;12910;57.690;11.974;2022-07-29T03:42:16;101341.13;;;14.29;100.00
24825;BME280;12910;57.690;11.974;2022-07-29T03:44:45;101342.91;;;14.32;100.00
24825;BME280;12910;57.690;11.974;2022-07-29T03:47:13;101348.06;;;14.33;100.00
24825;BME280;12910;57.690;11.974;2022-07-29T03:49:40;101342.97;;;14.38;100.00
24825;BME280;12910;57.690;11.974;2022-07-29T03:52:07;101334.31;;;14.33;100.00
24825;BME280;12910;57.690;11.974;2022-07-29T03:54:33;101348.97;;;14.39;100.00
24825;BME280;12910;57.690;11.974;2022-07-29T03:57:01;101342.06;;;14.34;100.00
24825;BME280;12910;57.690;11.974;2022-07-29T03:59:27;101345.53;;;14.38;100.00
24825;BME280;12910;57.690;11.974;2022-07-29T04:01:53;101348.13;;;14.38;100.00
24825;BME280;12910;57.690;11.974;2022-07-29T04:04:21;101343.81;;;14.39;100.00
24825;BME280;12910;57.690;11.974;2022-07-29T04:06:47;101342.97;;;14.40;100.00
24825;BME280;12910;57.690;11.974;2022-07-29T04:09:12;101329.16;;;14.33;100.00
24825;BME280;12910;57.690;11.974;2022-07-29T04:11:39;101342.97;;;14.40;100.00
24825;BME280;12910;57.690;11.974;2022-07-29T04:14:05;101341.28;;;14.42;100.00
24825;BME280;12910;57.690;11.974;2022-07-29T04:16:31;101343.88;;;14.42;100.00
24825;BME280;12910;57.690;11.974;2022-07-29T04:18:56;101343.06;;;14.46;100.00
24825;BME280;12910;57.690;11.974;2022-07-29T04:21:22;101339.66;;;14.47;100.00
24825;BME280;12910;57.690;11.974;2022-07-29T04:23:47;101337.97;;;14.52;100.00
24825;BME280;12910;57.690;11.974;2022-07-29T04:26:18;101340.59;;;14.58;100.00
24825;BME280;12910;57.690;11.974;2022-07-29T04:28:44;101337.28;;;14.65;100.00
24825;BME280;12910;57.690;11.974;2022-07-29T04:31:11;101340.75;;;14.68;100.00
24825;BME280;12910;57.690;11.974;2022-07-29T04:33:37;101345.06;;;14.69;100.00
24825;BME280;12910;57.690;11.974;2022-07-29T04:36:02;101337.34;;;14.72;100.00
24825;BME280;12910;57.690;11.974;2022-07-29T04:38:28;101332.16;;;14.67;100.00
24825;BME280;12910;57.690;11.974;2022-07-29T04:40:53;101340.84;;;14.77;100.00
24825;BME280;12910;57.690;11.974;2022-07-29T04:43:18;101335.72;;;14.82;100.00
24825;BME280;12910;57.690;11.974;2022-07-29T04:45:44;101331.44;;;14.82;100.00
24825;BME280;12910;57.690;11.974;2022-07-29T04:48:09;101343.56;;;14.88;100.00
24825;BME280;12910;57.690;11.974;2022-07-29T04:50:37;101334.94;;;14.87;100.00
24825;BME280;12910;57.690;11.974;2022-07-29T04:53:03;101344.41;;;14.88;100.00
24825;BME280;12910;57.690;11.974;2022-07-29T04:55:28;101341.88;;;14.91;100.00
24825;BME280;12910;57.690;11.974;2022-07-29T04:57:54;101331.50;;;14.87;100.00
24825;BME280;12910;57.690;11.974;2022-07-29T05:00:19;101342.75;;;14.96;100.00
24825;BME280;12910;57.690;11.974;2022-07-29T05:02:44;101345.34;;;14.96;100.00
24825;BME280;12910;57.690;11.974;2022-07-29T05:05:10;101354.00;;;15.03;100.00
24825;BME280;12910;57.690;11.974;2022-07-29T05:07:35;101353.22;;;15.10;100.00
24825;BME280;12910;57.690;11.974;2022-07-29T05:10:01;101344.63;;;15.08;100.00
24825;BME280;12910;57.690;11.974;2022-07-29T05:12:26;101351.56;;;15.16;100.00
24825;BME280;12910;57.690;11.974;2022-07-29T05:14:52;101354.22;;;15.23;100.00
24825;BME280;12910;57.690;11.974;2022-07-29T05:17:18;101349.91;;;15.25;100.00
24825;BME280;12910;57.690;11.974;2022-07-29T05:19:44;101360.28;;;15.30;100.00
24825;BME280;12910;57.690;11.974;2022-07-29T05:22:09;101347.34;;;15.30;100.00
24825;BME280;12910;57.690;11.974;2022-07-29T05:24:35;101352.56;;;15.33;100.00
24825;BME280;12910;57.690;11.974;2022-07-29T05:27:00;101343.94;;;15.30;100.00
24825;BME280;12910;57.690;11.974;2022-07-29T05:29:26;101349.16;;;15.39;100.00
24825;BME280;12910;57.690;11.974;2022-07-29T05:31:51;101351.75;;;15.40;100.00
24825;BME280;12910;57.690;11.974;2022-07-29T05:34:18;101345.81;;;15.48;100.00
24825;BME280;12910;57.690;11.974;2022-07-29T05:36:44;101343.22;;;15.49;100.00
24825;BME280;12910;57.690;11.974;2022-07-29T05:39:10;101350.16;;;15.56;100.00
24825;BME280;12910;57.690;11.974;2022-07-29T05:41:35;101343.25;;;15.55;100.00
24825;BME280;12910;57.690;11.974;2022-07-29T05:44:01;101345.88;;;15.58;100.00
24825;BME280;12910;57.690;11.974;2022-07-29T05:46:27;101347.59;;;15.60;100.00
24825;BME280;12910;57.690;11.974;2022-07-29T05:48:53;101343.28;;;15.57;100.00
24825;BME280;12910;57.690;11.974;2022-07-29T05:51:18;101342.44;;;15.61;100.00
24825;BME280;12910;57.690;11.974;2022-07-29T05:53:43;101338.16;;;15.63;100.00
24825;BME280;12910;57.690;11.974;2022-07-29T05:56:10;101344.16;;;15.64;100.00
24825;BME280;12910;57.690;11.974;2022-07-29T05:58:35;101344.16;;;15.64;100.00
24825;BME280;12910;57.690;11.974;2022-07-29T06:01:01;101344.19;;;15.68;100.00
24825;BME280;12910;57.690;11.974;2022-07-29T06:03:27;101345.97;;;15.71;100.00
24825;BME280;12910;57.690;11.974;2022-07-29T06:05:52;101354.63;;;15.79;100.00
24825;BME280;12910;57.690;11.974;2022-07-29T06:08:18;101340.84;;;15.80;100.00
24825;BME280;12910;57.690;11.974;2022-07-29T06:10:43;101344.28;;;15.82;100.00
24825;BME280;12910;57.690;11.974;2022-07-29T06:13:09;101337.38;;;15.80;100.00
24825;BME280;12910;57.690;11.974;2022-07-29T06:15:34;101347.78;;;15.84;100.00
24825;BME280;12910;57.690;11.974;2022-07-29T06:18:00;101349.53;;;15.90;100.00
24825;BME280;12910;57.690;11.974;2022-07-29T06:20:26;101350.41;;;15.94;100.00
24825;BME280;12910;57.690;11.974;2022-07-29T06:22:54;101345.28;;;15.95;100.00
24825;BME280;12910;57.690;11.974;2022-07-29T06:25:20;101341.84;;;15.98;100.00
24825;BME280;12910;57.690;11.974;2022-07-29T06:27:45;101346.16;;;16.00;100.00
24825;BME280;12910;57.690;11.974;2022-07-29T06:30:11;101345.28;;;16.03;100.00
24825;BME280;12910;57.690;11.974;2022-07-29T06:32:36;101348.78;;;16.08;100.00
24825;BME280;12910;57.690;11.974;2022-07-29T06:35:02;101349.66;;;16.10;100.00
24825;BME280;12910;57.690;11.974;2022-07-29T06:37:27;101343.63;;;16.13;100.00
24825;BME280;12910;57.690;11.974;2022-07-29T06:39:52;101334.19;;;16.15;100.00
24825;BME280;12910;57.690;11.974;2022-07-29T06:42:42;101344.53;;;16.19;100.00
24825;BME280;12910;57.690;11.974;2022-07-29T06:45:08;101342.81;;;16.23;100.00
24825;BME280;12910;57.690;11.974;2022-07-29T06:47:33;101338.50;;;16.22;100.00
24825;BME280;12910;57.690;11.974;2022-07-29T06:49:59;101328.19;;;16.25;100.00
24825;BME280;12910;57.690;11.974;2022-07-29T06:52:25;101336.81;;;16.30;100.00
24825;BME280;12910;57.690;11.974;2022-07-29T06:54:50;101322.16;;;16.28;100.00
24825;BME280;12910;57.690;11.974;2022-07-29T06:57:16;101335.94;;;16.33;100.00
24825;BME280;12910;57.690;11.974;2022-07-29T06:59:41;101332.50;;;16.32;100.00
24825;BME280;12910;57.690;11.974;2022-07-29T07:02:07;101333.38;;;16.36;100.00
24825;BME280;12910;57.690;11.974;2022-07-29T07:04:32;101328.22;;;16.36;100.00
24825;BME280;12910;57.690;11.974;2022-07-29T07:06:58;101325.63;;;16.42;100.00
24825;BME280;12910;57.690;11.974;2022-07-29T07:09:24;101319.63;;;16.46;100.00
24825;BME280;12910;57.690;11.974;2022-07-29T07:11:50;101318.78;;;16.47;100.00
24825;BME280;12910;57.690;11.974;2022-07-29T07:14:15;101322.22;;;16.51;100.00
24825;BME280;12910;57.690;11.974;2022-07-29T07:16:41;101319.63;;;16.52;100.00
24825;BME280;12910;57.690;11.974;2022-07-29T07:19:06;101319.66;;;16.54;100.00
24825;BME280;12910;57.690;11.974;2022-07-29T07:21:32;101325.69;;;16.61;100.00
24825;BME280;12910;57.690;11.974;2022-07-29T07:23:58;101323.97;;;16.61;100.00
24825;BME280;12910;57.690;11.974;2022-07-29T07:26:24;101323.13;;;16.64;100.00
24825;BME280;12910;57.690;11.974;2022-07-29T07:28:50;101318.78;;;16.69;100.00
24825;BME280;12910;57.690;11.974;2022-07-29T07:31:15;101328.31;;;16.73;100.00
24825;BME280;12910;57.690;11.974;2022-07-29T07:33:41;101317.09;;;16.73;100.00
24825;BME280;12910;57.690;11.974;2022-07-29T07:36:06;101330.91;;;16.79;100.00
24825;BME280;12910;57.690;11.974;2022-07-29T07:38:32;101325.75;;;16.82;100.00
24825;BME280;12910;57.690;11.974;2022-07-29T07:40:57;101324.88;;;16.85;100.00
24825;BME280;12910;57.690;11.974;2022-07-29T07:43:22;101329.19;;;16.85;100.00
24825;BME280;12910;57.690;11.974;2022-07-29T07:45:48;101324.03;;;16.91;100.00
24825;BME280;12910;57.690;11.974;2022-07-29T07:48:13;101320.56;;;16.92;100.00
24825;BME280;12910;57.690;11.974;2022-07-29T07:50:39;101321.50;;;16.97;100.00
24825;BME280;12910;57.690;11.974;2022-07-29T07:53:04;101323.19;;;16.98;100.00
24825;BME280;12910;57.690;11.974;2022-07-29T07:55:29;101320.63;;;17.01;100.00
24825;BME280;12910;57.690;11.974;2022-07-29T07:57:55;101330.97;;;17.07;100.00
24825;BME280;12910;57.690;11.974;2022-07-29T08:00:21;101326.69;;;17.11;100.00
24825;BME280;12910;57.690;11.974;2022-07-29T08:02:47;101334.44;;;17.16;100.00
24825;BME280;12910;57.690;11.974;2022-07-29T08:05:13;101328.38;;;17.20;100.00
24825;BME280;12910;57.690;11.974;2022-07-29T08:07:45;101340.47;;;17.21;100.00
24825;BME280;12910;57.690;11.974;2022-07-29T08:10:13;101337.88;;;17.21;100.00
24825;BME280;12910;57.690;11.974;2022-07-29T08:12:38;101337.03;;;17.28;100.00
24825;BME280;12910;57.690;11.974;2022-07-29T08:15:04;101337.91;;;17.28;100.00
24825;BME280;12910;57.690;11.974;2022-07-29T08:17:32;101338.75;;;17.37;100.00
24825;BME280;12910;57.690;11.974;2022-07-29T08:19:57;101342.19;;;17.42;100.00
24825;BME280;12910;57.690;11.974;2022-07-29T08:22:23;101337.03;;;17.45;100.00
24825;BME280;12910;57.690;11.974;2022-07-29T08:24:48;101331.00;;;17.44;100.00
24825;BME280;12910;57.690;11.974;2022-07-29T08:27:21;101344.78;;;17.51;100.00
24825;BME280;12910;57.690;11.974;2022-07-29T08:29:48;101343.94;;;17.54;100.00
24825;BME280;12910;57.690;11.974;2022-07-29T08:32:13;101343.06;;;17.53;100.00
24825;BME280;12910;57.690;11.974;2022-07-29T08:34:38;101339.59;;;17.59;100.00
24825;BME280;12910;57.690;11.974;2022-07-29T08:37:04;101336.13;;;17.60;100.00
24825;BME280;12910;57.690;11.974;2022-07-29T08:39:29;101347.34;;;17.70;100.00
24825;BME280;12910;57.690;11.974;2022-07-29T08:41:55;101340.44;;;17.73;100.00
24825;BME280;12910;57.690;11.974;2022-07-29T08:44:21;101333.50;;;17.83;100.00
24825;BME280;12910;57.690;11.974;2022-07-29T08:46:50;101335.22;;;17.81;100.00
24825;BME280;12910;57.690;11.974;2022-07-29T08:49:17;101330.91;;;17.75;100.00
24825;BME280;12910;57.690;11.974;2022-07-29T08:51:43;101337.84;;;17.80;100.00
24825;BME280;12910;57.690;11.974;2022-07-29T08:54:09;101350.78;;;17.81;100.00
24825;BME280;12910;57.690;11.974;2022-07-29T08:56:36;101334.38;;;17.79;100.00
24825;BME280;12910;57.690;11.974;2022-07-29T08:59:05;101334.38;;;17.85;100.00
24825;BME280;12910;57.690;11.974;2022-07-29T09:01:33;101327.47;;;17.83;100.00
24825;BME280;12910;57.690;11.974;2022-07-29T09:04:03;101336.94;;;17.87;100.00
24825;BME280;12910;57.690;11.974;2022-07-29T09:06:34;101336.09;;;17.88;100.00
24825;BME280;12910;57.690;11.974;2022-07-29T09:09:02;101330.03;;;17.92;100.00
24825;BME280;12910;57.690;11.974;2022-07-29T09:11:29;101330.00;;;17.94;100.00
24825;BME280;12910;57.690;11.974;2022-07-29T09:13:54;101330.03;;;17.98;100.00
24825;BME280;12910;57.690;11.974;2022-07-29T09:16:20;101333.50;;;17.97;100.00
24825;BME280;12910;57.690;11.974;2022-07-29T09:18:46;101339.53;;;17.99;100.00
24825;BME280;12910;57.690;11.974;2022-07-29T09:21:14;101345.56;;;18.04;100.00
24825;BME280;12910;57.690;11.974;2022-07-29T09:24:12;101342.09;;;18.05;100.00
24825;BME280;12910;57.690;11.974;2022-07-29T09:26:41;101340.38;;;18.04;100.00
24825;BME280;12910;57.690;11.974;2022-07-29T09:29:18;101335.22;;;18.06;100.00
24825;BME280;12910;57.690;11.974;2022-07-29T09:31:49;101321.34;;;18.10;100.00
24825;BME280;12910;57.690;11.974;2022-07-29T09:34:17;101334.25;;;18.26;100.00
24825;BME280;12910;57.690;11.974;2022-07-29T09:36:48;101341.16;;;18.31;100.00
24825;BME280;12910;57.690;11.974;2022-07-29T09:39:15;101344.53;;;18.43;100.00
24825;BME280;12910;57.690;11.974;2022-07-29T09:41:50;101349.72;;;18.49;100.00
24825;BME280;12910;57.690;11.974;2022-07-29T09:44:20;101351.41;;;18.56;100.00
24825;BME280;12910;57.690;11.974;2022-07-29T09:47:03;101335.78;;;18.62;100.00
24825;BME280;12910;57.690;11.974;2022-07-29T09:49:36;101340.97;;;18.68;100.00
24825;BME280;12910;57.690;11.974;2022-07-29T09:52:14;101342.66;;;18.76;100.00
24825;BME280;12910;57.690;11.974;2022-07-29T09:54:40;101345.25;;;18.73;100.00
24825;BME280;12910;57.690;11.974;2022-07-29T09:57:09;101345.28;;;18.69;100.00
24825;BME280;12910;57.690;11.974;2022-07-29T09:59:56;101356.50;;;18.72;100.00
24825;BME280;12910;57.690;11.974;2022-07-29T10:02:22;101346.09;;;18.76;100.00
24825;BME280;12910;57.690;11.974;2022-07-29T10:04:52;101339.97;;;18.94;100.00
24825;BME280;12910;57.690;11.974;2022-07-29T10:07:17;101344.25;;;18.92;100.00
24825;BME280;12910;57.690;11.974;2022-07-29T10:09:52;101340.81;;;18.90;100.00
24825;BME280;12910;57.690;11.974;2022-07-29T10:12:19;101336.47;;;18.97;100.00
24825;BME280;12910;57.690;11.974;2022-07-29T10:14:44;101332.16;;;18.97;100.00
24825;BME280;12910;57.690;11.974;2022-07-29T10:17:10;101342.56;;;18.94;100.00
24825;BME280;12910;57.690;11.974;2022-07-29T10:19:37;101340.81;;;18.96;100.00
24825;BME280;12910;57.690;11.974;2022-07-29T10:22:06;101345.13;;;18.96;100.00
24825;BME280;12910;57.690;11.974;2022-07-29T10:24:32;101343.41;;;18.99;100.00
24825;BME280;12910;57.690;11.974;2022-07-29T10:27:00;101342.50;;;19.04;100.00
24825;BME280;12910;57.690;11.974;2022-07-29T10:29:26;101337.22;;;19.10;100.00
24825;BME280;12910;57.690;11.974;2022-07-29T10:32:09;101345.88;;;19.18;100.00
24825;BME280;12910;57.690;11.974;2022-07-29T10:40:45;101338.88;;;19.23;100.00
24825;BME280;12910;57.690;11.974;2022-07-29T10:43:44;101331.09;;;19.20;100.00
24825;BME280;12910;57.690;11.974;2022-07-29T10:46:10;101345.81;;;19.24;100.00
24825;BME280;12910;57.690;11.974;2022-07-29T10:54:15;101330.22;;;19.21;100.00
24825;BME280;12910;57.690;11.974;2022-07-29T10:56:41;101340.53;;;19.30;100.00
24825;BME280;12910;57.690;11.974;2022-07-29T11:01:52;101339.63;;;19.38;100.00
24825;BME280;12910;57.690;11.974;2022-07-29T11:07:11;101344.06;;;19.26;100.00
24825;BME280;12910;57.690;11.974;2022-07-29T11:09:37;101339.72;;;19.27;100.00
24825;BME280;12910;57.690;11.974;2022-07-29T11:12:04;101342.22;;;19.38;100.00
24825;BME280;12910;57.690;11.974;2022-07-29T11:14:55;101337.81;;;19.44;100.00
24825;BME280;12910;57.690;11.974;2022-07-29T11:17:21;101334.34;;;19.45;100.00
24825;BME280;12910;57.690;11.974;2022-07-29T11:19:46;101333.50;;;19.45;100.00
24825;BME280;12910;57.690;11.974;2022-07-29T11:22:33;101324.81;;;19.44;100.00
24825;BME280;12910;57.690;11.974;2022-07-29T11:25:15;101329.06;;;19.55;100.00
24825;BME280;12910;57.690;11.974;2022-07-29T11:27:42;101324.72;;;19.55;100.00
24825;BME280;12910;57.690;11.974;2022-07-29T11:30:08;101333.41;;;19.53;100.00
24825;BME280;12910;57.690;11.974;2022-07-29T11:32:39;101329.97;;;19.49;100.00
24825;BME280;12910;57.690;11.974;2022-07-29T11:35:18;101327.28;;;19.60;100.00
24825;BME280;12910;57.690;11.974;2022-07-29T11:37:46;101328.00;;;19.76;100.00
24825;BME280;12910;57.690;11.974;2022-07-29T11:40:13;101334.00;;;19.78;100.00
24825;BME280;12910;57.690;11.974;2022-07-29T11:42:42;101338.41;;;19.76;100.00
24825;BME280;12910;57.690;11.974;2022-07-29T11:47:48;101336.63;;;19.80;100.00
24825;BME280;12910;57.690;11.974;2022-07-29T11:52:53;101331.50;;;19.69;100.00
24825;BME280;12910;57.690;11.974;2022-07-29T11:55:21;101322.75;;;19.77;100.00
24825;BME280;12910;57.690;11.974;2022-07-29T11:57:51;101327.91;;;19.82;100.00
24825;BME280;12910;57.690;11.974;2022-07-29T12:00:27;101333.13;;;19.82;100.00
24825;BME280;12910;57.690;11.974;2022-07-29T12:02:54;101329.59;;;19.89;100.00
24825;BME280;12910;57.690;11.974;2022-07-29T12:05:19;101331.38;;;19.84;100.00
24825;BME280;12910;57.690;11.974;2022-07-29T12:07:46;101329.53;;;19.96;100.00
24825;BME280;12910;57.690;11.974;2022-07-29T12:10:12;101318.97;;;20.08;100.00
24825;BME280;12910;57.690;11.974;2022-07-29T12:12:37;101318.16;;;20.04;100.00
24825;BME280;12910;57.690;11.974;2022-07-29T12:15:16;101312.13;;;20.01;100.00
24825;BME280;12910;57.690;11.974;2022-07-29T12:17:45;101314.53;;;20.16;100.00
24825;BME280;12910;57.690;11.974;2022-07-29T12:20:11;101324.91;;;20.19;100.00
24825;BME280;12910;57.690;11.974;2022-07-29T12:22:39;101315.41;;;20.15;100.00
24825;BME280;12910;57.690;11.974;2022-07-29T12:25:13;101320.63;;;20.14;100.00
24825;BME280;12910;57.690;11.974;2022-07-29T12:27:43;101323.25;;;20.12;100.00
24825;BME280;12910;57.690;11.974;2022-07-29T12:30:14;101317.06;;;20.22;100.00
24825;BME280;12910;57.690;11.974;2022-07-29T12:32:49;101318.66;;;20.33;100.00
24825;BME280;12910;57.690;11.974;2022-07-29T12:35:17;101316.88;;;20.35;100.00
24825;BME280;12910;57.690;11.974;2022-07-29T12:37:45;101317.75;;;20.35;100.00
24825;BME280;12910;57.690;11.974;2022-07-29T12:40:14;101302.06;;;20.40;100.00
24825;BME280;12910;57.690;11.974;2022-07-29T12:42:41;101315.88;;;20.47;100.00
24825;BME280;12910;57.690;11.974;2022-07-29T12:45:30;101326.38;;;20.39;100.00
24825;BME280;12910;57.690;11.974;2022-07-29T12:47:56;101308.16;;;20.39;100.00
24825;BME280;12910;57.690;11.974;2022-07-29T12:50:22;101319.28;;;20.50;100.00
24825;BME280;12910;57.690;11.974;2022-07-29T12:52:48;101320.88;;;20.61;100.00
24825;BME280;12910;57.690;11.974;2022-07-29T12:55:14;101323.50;;;20.61;100.00
24825;BME280;12910;57.690;11.974;2022-07-29T12:57:47;101308.78;;;20.58;100.00
24825;BME280;12910;57.690;11.974;2022-07-29T13:00:13;101318.31;;;20.58;100.00
24825;BME280;12910;57.690;11.974;2022-07-29T13:02:40;101317.38;;;20.63;100.00
24825;BME280;12910;57.690;11.974;2022-07-29T13:05:07;101317.22;;;20.74;100.00
24825;BME280;12910;57.690;11.974;2022-07-29T13:07:38;101308.53;;;20.77;100.00